Time,TemperatureF,DewpointF,PressureIn,WindDirection,WindDirectionDegrees,WindSpeedMPH,WindSpeedGustMPH,Humidity,HourlyPrecipIn,Conditions,Clouds,dailyrainin,SoftwareType,DateUTC
2013-04-02 00:00:00,35.8,11.4,29.84,NW,311,3.0,3.0,36,0.00,CLR,CLR,0.04,WeatherDisplay:10.36,2013-04-02 04:00:00,
2013-04-02 00:05:00,35.8,11.4,29.84,WNW,300,3.5,3.5,36,0.00,CLR,CLR,0.00,WeatherDisplay:10.36,2013-04-02 04:05:00,
2013-04-02 00:07:00,35.8,11.4,29.84,WNW,299,10.4,10.4,36,0.00,CLR,CLR,0.00,WeatherDisplay:10.36,2013-04-02 04:07:00,
2013-04-02 00:12:00,35.6,11.9,29.84,NW,321,2.0,2.0,37,0.00,CLR,CLR,0.00,WeatherDisplay:10.36,2013-04-02 04:12:00,
2013-04-02 00:17:00,35.5,11.8,29.84,NW,321,3.5,3.5,37,0.00,CLR,CLR,0.00,WeatherDisplay:10.36,2013-04-02 04:17:00,
2013-04-02 00:22:00,35.3,11.6,29.85,WSW,252,2.3,2.3,37,0.00,CLR,CLR,0.00,WeatherDisplay:10.36,2013-04-02 04:22:00,
2013-04-02 00:27:00,35.2,11.5,29.85,NW,304,3.5,3.5,37,0.00,CLR,CLR,0.00,WeatherDisplay:10.36,2013-04-02 04:27:00,
2013-04-02 00:32:00,35.0,11.3,29.85,NW,326,3.5,3.5,37,0.00,CLR,CLR,0.00,WeatherDisplay:10.36,2013-04-02 04:32:00,
2013-04-02 00:37:00,35.0,11.3,29.85,NW,305,3.5,3.5,37,0.00,CLR,CLR,0.00,WeatherDisplay:10.36,2013-04-02 04:37:00,
2013-04-02 00:42:00,34.9,11.8,29.85,NW,307,2.0,2.0,38,0.00,CLR,CLR,0.00,WeatherDisplay:10.36,2013-04-02 04:42:00,
2013-04-02 00:48:00,34.7,12.8,29.85,NW,307,0.0,0.0,40,0.00,CLR,CLR,0.00,WeatherDisplay:10.36,2013-04-02 04:48:00,
2013-04-02 00:53:00,34.6,12.1,29.85,SW,235,2.3,2.3,39,0.00,CLR,CLR,0.00,WeatherDisplay:10.36,2013-04-02 04:53:00,
2013-04-02 00:58:00,34.4,12.0,29.86,NW,316,3.5,0.0,39,0.00,CLR,CLR,0.00,WeatherDisplay:10.36,2013-04-02 04:58:00,
2013-04-02 01:03:00,34.3,11.9,29.86,NW,315,0.0,0.0,39,0.00,CLR,CLR,0.00,WeatherDisplay:10.36,2013-04-02 05:03:00,
2013-04-02 01:08:00,34.3,12.4,29.86,WSW,242,2.3,2.3,40,0.00,CLR,CLR,0.00,WeatherDisplay:10.36,2013-04-02 05:08:00,
2013-04-02 01:13:00,34.3,11.3,29.86,NNW,346,3.0,3.0,38,0.00,CLR,CLR,0.00,WeatherDisplay:10.36,2013-04-02 05:13:00,
2013-04-02 01:18:00,34.3,10.7,29.86,NW,323,2.3,2.3,37,0.00,CLR,CLR,0.00,WeatherDisplay:10.36,2013-04-02 05:18:00,
2013-04-02 01:23:00,34.3,10.7,29.86,SW,230,3.5,3.5,37,0.00,CLR,CLR,0.00,WeatherDisplay:10.36,2013-04-02 05:23:00,
2013-04-02 01:29:00,34.3,10.7,29.86,West,267,2.3,2.3,37,0.00,CLR,CLR,0.00,WeatherDisplay:10.36,2013-04-02 05:29:00,
2013-04-02 01:34:00,34.1,11.7,29.86,West,267,1.2,1.2,39,0.00,CLR,CLR,0.00,WeatherDisplay:10.36,2013-04-02 05:34:00,
2013-04-02 01:39:00,34.0,11.6,29.86,West,267,0.0,0.0,39,0.00,CLR,CLR,0.00,WeatherDisplay:10.36,2013-04-02 05:39:00,
2013-04-02 01:44:00,33.8,11.4,29.86,WSW,256,1.2,0.0,39,0.00,CLR,CLR,0.00,WeatherDisplay:10.36,2013-04-02 05:44:00,
2013-04-02 01:49:00,33.7,11.9,29.86,WNW,285,1.2,1.2,40,0.00,CLR,CLR,0.00,WeatherDisplay:10.36,2013-04-02 05:49:00,
2013-04-02 01:55:00,33.5,11.7,29.86,WNW,285,2.3,2.3,40,0.00,CLR,CLR,0.00,WeatherDisplay:10.36,2013-04-02 05:55:00,
2013-04-02 02:00:00,33.5,11.2,29.86,West,274,1.0,3.0,39,0.00,CLR,CLR,0.00,WeatherDisplay:10.36,2013-04-02 06:00:00,
2013-04-02 02:05:00,33.5,11.2,29.86,West,260,0.0,1.0,39,0.00,CLR,CLR,0.00,WeatherDisplay:10.36,2013-04-02 06:05:00,
2013-04-02 02:10:00,33.5,11.7,29.86,WSW,257,0.0,2.0,40,0.00,CLR,CLR,0.00,WeatherDisplay:10.36,2013-04-02 06:10:00,
2013-04-02 02:15:00,33.4,11.6,29.86,WSW,257,0.0,0.0,40,0.00,CLR,CLR,0.00,WeatherDisplay:10.36,2013-04-02 06:15:00,
2013-04-02 02:20:00,33.2,12.6,29.86,WSW,240,0.0,5.0,42,0.00,CLR,CLR,0.00,WeatherDisplay:10.36,2013-04-02 06:20:00,
2013-04-02 02:25:00,33.1,12.5,29.86,SSW,207,0.0,0.0,42,0.00,CLR,CLR,0.00,WeatherDisplay:10.36,2013-04-02 06:25:00,
2013-04-02 02:30:00,32.9,12.3,29.86,SSW,196,0.0,0.0,42,0.00,CLR,CLR,0.00,WeatherDisplay:10.36,2013-04-02 06:30:00,
2013-04-02 02:35:00,32.8,12.7,29.86,SSW,196,0.0,0.0,43,0.00,CLR,CLR,0.00,WeatherDisplay:10.36,2013-04-02 06:35:00,
2013-04-02 02:40:00,32.6,13.1,29.86,SSW,196,0.0,0.0,44,0.00,CLR,CLR,0.00,WeatherDisplay:10.36,2013-04-02 06:40:00,
2013-04-02 02:45:00,32.4,12.9,29.86,SSW,196,0.0,0.0,44,0.00,CLR,CLR,0.00,WeatherDisplay:10.36,2013-04-02 06:45:00,
2013-04-02 02:50:00,32.1,12.6,29.86,SSW,196,0.0,0.0,44,0.00,CLR,CLR,0.00,WeatherDisplay:10.36,2013-04-02 06:50:00,
2013-04-02 02:55:00,31.8,12.3,29.86,SSW,196,0.0,0.0,44,0.00,CLR,CLR,0.00,WeatherDisplay:10.36,2013-04-02 06:55:00,
2013-04-02 03:00:00,31.6,12.7,29.85,SSW,209,1.2,1.2,45,0.00,CLR,CLR,0.00,WeatherDisplay:10.36,2013-04-02 07:00:00,
2013-04-02 03:06:00,31.5,13.1,29.85,SSW,209,0.0,0.0,46,0.00,CLR,CLR,0.00,WeatherDisplay:10.36,2013-04-02 07:06:00,
2013-04-02 03:11:00,31.3,12.9,29.85,SSW,209,0.0,0.0,46,0.00,CLR,CLR,0.00,WeatherDisplay:10.36,2013-04-02 07:11:00,
2013-04-02 03:16:00,31.2,12.8,29.85,SSW,209,0.0,0.0,46,0.00,CLR,CLR,0.00,WeatherDisplay:10.36,2013-04-02 07:16:00,
2013-04-02 03:21:00,31.2,12.8,29.85,SSW,209,0.0,0.0,46,0.00,CLR,CLR,0.00,WeatherDisplay:10.36,2013-04-02 07:21:00,
2013-04-02 03:26:00,31.0,13.1,29.85,SSW,209,0.0,0.0,47,0.00,CLR,CLR,0.00,WeatherDisplay:10.36,2013-04-02 07:26:00,
2013-04-02 03:31:00,30.9,12.5,29.85,SSW,209,0.0,0.0,46,0.00,CLR,CLR,0.00,WeatherDisplay:10.36,2013-04-02 07:31:00,
2013-04-02 03:37:00,30.7,11.8,29.85,SSW,209,0.0,0.0,45,0.00,CLR,CLR,0.00,WeatherDisplay:10.36,2013-04-02 07:37:00,
2013-04-02 03:42:00,30.7,12.3,29.85,SSW,209,0.0,0.0,46,0.00,CLR,CLR,0.00,WeatherDisplay:10.36,2013-04-02 07:42:00,
2013-04-02 03:47:00,30.6,13.2,29.85,SSW,209,0.0,0.0,48,0.00,CLR,CLR,0.00,WeatherDisplay:10.36,2013-04-02 07:47:00,
2013-04-02 03:52:00,30.4,13.5,29.85,SSW,209,1.2,0.0,49,0.00,CLR,CLR,0.00,WeatherDisplay:10.36,2013-04-02 07:52:00,
2013-04-02 03:58:00,30.4,14.0,29.85,SSW,209,0.0,0.0,50,0.00,CLR,CLR,0.00,WeatherDisplay:10.36,2013-04-02 07:58:00,
2013-04-02 04:03:00,30.4,14.0,29.86,SSW,209,0.0,0.0,50,0.00,CLR,CLR,0.00,WeatherDisplay:10.36,2013-04-02 08:03:00,
2013-04-02 04:08:00,30.3,13.9,29.86,SSW,209,0.0,0.0,50,0.00,CLR,CLR,0.00,WeatherDisplay:10.36,2013-04-02 08:08:00,
2013-04-02 04:13:00,30.1,13.7,29.85,SSW,209,0.0,0.0,50,0.00,CLR,CLR,0.00,WeatherDisplay:10.36,2013-04-02 08:13:00,
2013-04-02 04:18:00,30.0,14.0,29.85,SSW,209,0.0,0.0,51,0.00,CLR,CLR,0.00,WeatherDisplay:10.36,2013-04-02 08:18:00,
2013-04-02 04:23:00,29.8,15.2,29.85,SSW,209,0.0,0.0,54,0.00,CLR,CLR,0.00,WeatherDisplay:10.36,2013-04-02 08:23:00,
2013-04-02 04:29:00,29.7,14.6,29.85,SSW,209,0.0,0.0,53,0.00,CLR,CLR,0.00,WeatherDisplay:10.36,2013-04-02 08:29:00,
2013-04-02 04:34:00,29.5,13.6,29.85,SSW,209,0.0,0.0,51,0.00,CLR,CLR,0.00,WeatherDisplay:10.36,2013-04-02 08:34:00,
2013-04-02 04:39:00,29.4,12.6,29.86,SSW,209,0.0,0.0,49,0.00,CLR,CLR,0.00,WeatherDisplay:10.36,2013-04-02 08:39:00,
2013-04-02 04:44:00,29.4,12.6,29.86,SSW,209,0.0,0.0,49,0.00,CLR,CLR,0.00,WeatherDisplay:10.36,2013-04-02 08:44:00,
2013-04-02 04:49:00,29.3,13.4,29.86,SSW,209,0.0,0.0,51,0.00,CLR,CLR,0.00,WeatherDisplay:10.36,2013-04-02 08:49:00,
2013-04-02 04:54:00,29.3,13.8,29.86,SSW,209,0.0,0.0,52,0.00,CLR,CLR,0.00,WeatherDisplay:10.36,2013-04-02 08:54:00,
2013-04-02 05:00:00,29.2,14.2,29.86,SSW,209,0.0,0.0,53,0.00,CLR,CLR,0.00,WeatherDisplay:10.36,2013-04-02 09:00:00,
2013-04-02 05:05:00,29.1,14.9,29.86,SSW,209,0.0,0.0,55,0.00,CLR,CLR,0.00,WeatherDisplay:10.36,2013-04-02 09:05:00,
2013-04-02 05:10:00,29.0,14.4,29.86,SSW,209,0.0,0.0,54,0.00,CLR,CLR,0.00,WeatherDisplay:10.36,2013-04-02 09:10:00,
2013-04-02 05:15:00,29.0,14.0,29.87,SSW,209,0.0,0.0,53,0.00,CLR,CLR,0.00,WeatherDisplay:10.36,2013-04-02 09:15:00,
2013-04-02 05:20:00,29.0,14.0,29.86,SSW,209,0.0,0.0,53,0.00,CLR,CLR,0.00,WeatherDisplay:10.36,2013-04-02 09:20:00,
2013-04-02 05:25:00,29.4,13.0,29.86,SSW,209,1.2,0.0,50,0.00,CLR,CLR,0.00,WeatherDisplay:10.36,2013-04-02 09:25:00,
2013-04-02 05:30:00,29.5,13.1,29.86,SSW,209,0.0,0.0,50,0.00,CLR,CLR,0.00,WeatherDisplay:10.36,2013-04-02 09:30:00,
2013-04-02 05:35:00,30.0,13.1,29.86,West,278,1.2,1.2,49,0.00,CLR,CLR,0.00,WeatherDisplay:10.36,2013-04-02 09:35:00,
2013-04-02 05:40:00,30.3,13.4,29.87,West,278,0.0,0.0,49,0.00,CLR,CLR,0.00,WeatherDisplay:10.36,2013-04-02 09:40:00,
2013-04-02 05:46:00,30.4,14.0,29.87,West,278,0.0,0.0,50,0.00,CLR,CLR,0.00,WeatherDisplay:10.36,2013-04-02 09:46:00,
2013-04-02 05:51:00,30.4,13.5,29.88,West,278,2.3,2.3,49,0.00,CLR,CLR,0.00,WeatherDisplay:10.36,2013-04-02 09:51:00,
2013-04-02 05:56:00,30.4,13.5,29.88,West,278,0.0,0.0,49,0.00,CLR,CLR,0.00,WeatherDisplay:10.36,2013-04-02 09:56:00,
2013-04-02 06:01:00,30.6,13.7,29.88,West,278,0.0,0.0,49,0.00,CLR,CLR,0.00,WeatherDisplay:10.36,2013-04-02 10:01:00,
2013-04-02 06:07:00,30.6,14.1,29.88,West,278,0.0,0.0,50,0.00,CLR,CLR,0.00,WeatherDisplay:10.36,2013-04-02 10:07:00,
2013-04-02 06:12:00,30.4,14.4,29.88,West,278,0.0,0.0,51,0.00,CLR,CLR,0.00,WeatherDisplay:10.36,2013-04-02 10:12:00,
2013-04-02 06:17:00,30.1,14.1,29.88,West,278,1.2,0.0,51,0.00,CLR,CLR,0.00,WeatherDisplay:10.36,2013-04-02 10:17:00,
2013-04-02 06:22:00,30.1,14.1,29.89,WSW,249,0.0,0.0,51,0.00,CLR,CLR,0.00,WeatherDisplay:10.36,2013-04-02 10:22:00,
2013-04-02 06:27:00,30.3,13.9,29.89,WSW,249,0.0,0.0,50,0.00,CLR,CLR,0.00,WeatherDisplay:10.36,2013-04-02 10:27:00,
2013-04-02 06:32:00,30.3,13.4,29.89,WNW,287,2.3,2.3,49,0.00,CLR,CLR,0.00,WeatherDisplay:10.36,2013-04-02 10:32:00,
2013-04-02 06:37:00,30.6,13.7,29.89,WNW,295,2.3,2.3,49,0.00,CLR,CLR,0.00,WeatherDisplay:10.36,2013-04-02 10:37:00,
2013-04-02 06:42:00,30.7,14.2,29.89,WNW,296,3.0,3.0,50,0.00,CLR,CLR,0.00,WeatherDisplay:10.36,2013-04-02 10:42:00,
2013-04-02 06:47:00,30.7,13.8,29.90,NNW,333,2.3,2.3,49,0.00,CLR,CLR,0.00,WeatherDisplay:10.36,2013-04-02 10:47:00,
2013-04-02 06:52:00,30.7,14.2,29.90,NNW,333,2.0,2.0,50,0.00,CLR,CLR,0.00,WeatherDisplay:10.36,2013-04-02 10:52:00,
2013-04-02 06:57:00,30.7,14.2,29.90,NNW,333,2.3,2.3,50,0.00,CLR,CLR,0.00,WeatherDisplay:10.36,2013-04-02 10:57:00,
2013-04-02 07:02:00,30.7,14.2,29.91,NNW,333,1.2,0.0,50,0.00,CLR,CLR,0.00,WeatherDisplay:10.36,2013-04-02 11:02:00,
2013-04-02 07:08:00,30.6,14.1,29.91,NNW,333,2.3,2.3,50,0.00,CLR,CLR,0.00,WeatherDisplay:10.36,2013-04-02 11:08:00,
2013-04-02 07:13:00,30.7,14.7,29.91,NNW,333,2.0,2.0,51,0.00,CLR,CLR,0.00,WeatherDisplay:10.36,2013-04-02 11:13:00,
2013-04-02 07:18:00,30.7,14.2,29.92,NNW,333,0.0,0.0,50,0.00,CLR,CLR,0.00,WeatherDisplay:10.36,2013-04-02 11:18:00,
2013-04-02 07:23:00,30.9,14.9,29.92,West,263,0.0,0.0,51,0.00,CLR,CLR,0.00,WeatherDisplay:10.36,2013-04-02 11:23:00,
2013-04-02 07:28:00,31.0,14.5,29.92,West,259,1.2,1.2,50,0.00,CLR,CLR,0.00,WeatherDisplay:10.36,2013-04-02 11:28:00,
2013-04-02 07:34:00,31.2,14.7,29.92,West,259,2.3,2.3,50,0.00,CLR,CLR,0.00,WeatherDisplay:10.36,2013-04-02 11:34:00,
2013-04-02 07:39:00,31.3,14.8,29.92,WSW,255,2.3,0.0,50,0.00,CLR,CLR,0.00,WeatherDisplay:10.36,2013-04-02 11:39:00,
2013-04-02 07:44:00,31.5,15.0,29.92,WSW,255,0.0,0.0,50,0.00,CLR,CLR,0.00,WeatherDisplay:10.36,2013-04-02 11:44:00,
2013-04-02 07:49:00,31.8,14.8,29.92,WSW,245,2.3,2.3,49,0.00,CLR,CLR,0.00,WeatherDisplay:10.36,2013-04-02 11:49:00,
2013-04-02 07:54:00,31.9,14.4,29.92,West,279,5.8,5.8,48,0.00,CLR,CLR,0.00,WeatherDisplay:10.36,2013-04-02 11:54:00,
2013-04-02 07:59:00,32.1,14.6,29.92,SSW,201,3.5,3.5,48,0.00,CLR,CLR,0.00,WeatherDisplay:10.36,2013-04-02 11:59:00,
2013-04-02 08:04:00,32.2,15.2,29.92,WNW,294,2.3,2.3,49,0.00,CLR,CLR,0.00,WeatherDisplay:10.36,2013-04-02 12:04:00,
2013-04-02 08:09:00,32.2,14.7,29.93,West,262,4.0,4.0,48,0.00,CLR,CLR,0.00,WeatherDisplay:10.36,2013-04-02 12:09:00,
2013-04-02 08:14:00,32.2,14.7,29.93,West,278,5.8,5.8,48,0.00,CLR,CLR,0.00,WeatherDisplay:10.36,2013-04-02 12:14:00,
2013-04-02 08:19:00,32.4,14.9,29.93,WSW,252,4.6,4.6,48,0.00,CLR,CLR,0.00,WeatherDisplay:10.36,2013-04-02 12:19:00,
2013-04-02 08:25:00,32.4,14.4,29.93,West,278,1.2,1.2,47,0.00,CLR,CLR,0.00,WeatherDisplay:10.36,2013-04-02 12:25:00,
2013-04-02 08:30:00,32.5,14.5,29.93,West,273,2.3,2.3,47,0.00,CLR,CLR,0.00,WeatherDisplay:10.36,2013-04-02 12:30:00,
2013-04-02 08:35:00,32.7,14.2,29.93,WSW,245,3.5,3.5,46,0.00,CLR,CLR,0.00,WeatherDisplay:10.36,2013-04-02 12:35:00,
2013-04-02 08:40:00,32.5,13.5,29.94,SW,231,10.4,10.4,45,0.00,CLR,CLR,0.00,WeatherDisplay:10.36,2013-04-02 12:40:00,
2013-04-02 08:45:00,32.7,13.7,29.94,West,265,2.0,7.0,45,0.00,CLR,CLR,0.00,WeatherDisplay:10.36,2013-04-02 12:45:00,
2013-04-02 08:50:00,32.7,13.7,29.94,WSW,256,2.0,6.0,45,0.00,CLR,CLR,0.00,WeatherDisplay:10.36,2013-04-02 12:50:00,
2013-04-02 08:55:00,32.8,13.2,29.94,WSW,251,7.0,7.0,44,0.00,CLR,CLR,0.00,WeatherDisplay:10.36,2013-04-02 12:55:00,
2013-04-02 09:00:00,32.9,13.3,29.94,WNW,296,3.5,3.5,44,0.00,CLR,CLR,0.00,WeatherDisplay:10.36,2013-04-02 13:00:00,
2013-04-02 09:06:00,33.1,12.5,29.94,NW,306,3.5,3.5,42,0.00,CLR,CLR,0.00,WeatherDisplay:10.36,2013-04-02 13:06:00,
2013-04-02 09:12:00,33.1,11.9,29.94,NNW,328,7.0,7.0,41,0.00,CLR,CLR,0.00,WeatherDisplay:10.36,2013-04-02 13:12:00,
2013-04-02 09:17:00,33.2,13.1,29.94,WNW,293,5.8,5.8,43,0.00,CLR,CLR,0.00,WeatherDisplay:10.36,2013-04-02 13:17:00,
2013-04-02 09:22:00,33.4,12.7,29.94,WNW,294,5.8,5.8,42,0.00,CLR,CLR,0.00,WeatherDisplay:10.36,2013-04-02 13:22:00,
2013-04-02 09:27:00,33.8,13.6,29.94,WNW,302,1.2,1.4,43,0.00,CLR,CLR,0.00,WeatherDisplay:10.36,2013-04-02 13:27:00,
2013-04-02 09:32:00,34.1,12.3,29.94,WSW,250,3.5,3.5,40,0.00,CLR,CLR,0.00,WeatherDisplay:10.36,2013-04-02 13:32:00,
2013-04-02 09:37:00,34.0,12.2,29.94,West,265,6.9,6.9,40,0.00,CLR,CLR,0.00,WeatherDisplay:10.36,2013-04-02 13:37:00,
2013-04-02 09:42:00,34.0,13.3,29.94,West,280,2.3,2.3,42,0.00,CLR,CLR,0.00,WeatherDisplay:10.36,2013-04-02 13:42:00,
2013-04-02 09:47:00,34.1,12.8,29.94,NW,322,3.5,3.5,41,0.00,CLR,CLR,0.00,WeatherDisplay:10.36,2013-04-02 13:47:00,
2013-04-02 09:53:00,34.4,12.5,29.94,WNW,287,3.5,3.5,40,0.00,CLR,CLR,0.00,WeatherDisplay:10.36,2013-04-02 13:53:00,
2013-04-02 09:58:00,34.4,12.5,29.94,WSW,250,5.0,5.0,40,0.00,CLR,CLR,0.00,WeatherDisplay:10.36,2013-04-02 13:58:00,
2013-04-02 10:03:00,34.4,12.0,29.94,NW,304,3.5,3.5,39,0.00,CLR,CLR,0.00,WeatherDisplay:10.36,2013-04-02 14:03:00,
2013-04-02 10:08:00,35.0,11.3,29.94,West,262,10.0,10.0,37,0.00,CLR,CLR,0.00,WeatherDisplay:10.36,2013-04-02 14:08:00,
2013-04-02 10:13:00,35.6,11.2,29.94,WNW,299,10.4,10.4,36,0.00,CLR,CLR,0.00,WeatherDisplay:10.36,2013-04-02 14:13:00,
2013-04-02 10:18:00,35.6,9.9,29.94,West,274,3.5,3.5,34,0.00,CLR,CLR,0.00,WeatherDisplay:10.36,2013-04-02 14:18:00,
2013-04-02 10:23:00,35.3,9.7,29.94,SSW,196,3.5,3.5,34,0.00,CLR,CLR,0.00,WeatherDisplay:10.36,2013-04-02 14:23:00,
2013-04-02 10:29:00,35.8,10.8,29.94,West,276,3.5,3.5,35,0.00,CLR,CLR,0.00,WeatherDisplay:10.36,2013-04-02 14:29:00,
2013-04-02 10:34:00,36.2,9.8,29.94,SW,226,6.9,6.9,33,0.00,CLR,CLR,0.00,WeatherDisplay:10.36,2013-04-02 14:34:00,
2013-04-02 10:39:00,36.3,8.5,29.94,WNW,301,4.6,4.6,31,0.00,CLR,CLR,0.00,WeatherDisplay:10.36,2013-04-02 14:39:00,
2013-04-02 10:44:00,36.5,10.1,29.94,NW,323,4.6,4.6,33,0.00,CLR,CLR,0.00,WeatherDisplay:10.36,2013-04-02 14:44:00,
2013-04-02 10:49:00,36.8,9.7,29.94,WNW,286,3.5,3.5,32,0.00,CLR,CLR,0.00,WeatherDisplay:10.36,2013-04-02 14:49:00,
2013-04-02 10:54:00,36.8,8.2,29.93,WNW,297,5.8,5.8,30,0.00,CLR,CLR,0.00,WeatherDisplay:10.36,2013-04-02 14:54:00,
2013-04-02 10:59:00,36.5,7.2,29.93,WSW,240,3.5,3.5,29,0.00,CLR,CLR,0.00,WeatherDisplay:10.36,2013-04-02 14:59:00,
2013-04-02 11:04:00,36.6,7.3,29.93,SSW,212,12.0,12.0,29,0.00,CLR,CLR,0.00,WeatherDisplay:10.36,2013-04-02 15:04:00,
2013-04-02 11:09:00,37.0,7.6,29.93,WSW,258,6.0,6.0,29,0.00,CLR,CLR,0.00,WeatherDisplay:10.36,2013-04-02 15:09:00,
2013-04-02 11:14:00,37.5,8.8,29.93,South,169,9.0,9.0,30,0.00,CLR,CLR,0.00,WeatherDisplay:10.36,2013-04-02 15:14:00,
2013-04-02 11:20:00,38.0,6.9,29.93,ENE,64,3.5,3.5,27,0.00,CLR,CLR,0.00,WeatherDisplay:10.36,2013-04-02 15:20:00,
2013-04-02 11:25:00,38.2,7.9,29.93,WSW,258,3.0,7.0,28,0.00,CLR,CLR,0.00,WeatherDisplay:10.36,2013-04-02 15:25:00,
2013-04-02 11:30:00,38.3,7.2,29.93,West,266,3.0,6.0,27,0.00,CLR,CLR,0.00,WeatherDisplay:10.36,2013-04-02 15:30:00,
2013-04-02 11:36:00,38.3,8.8,29.93,West,277,3.5,3.5,29,0.00,CLR,CLR,0.00,WeatherDisplay:10.36,2013-04-02 15:36:00,
2013-04-02 11:41:00,38.2,7.9,29.92,South,185,10.4,10.4,28,0.00,CLR,CLR,0.00,WeatherDisplay:10.36,2013-04-02 15:41:00,
2013-04-02 11:46:00,37.9,7.6,29.92,WSW,245,5.8,5.8,28,0.00,CLR,CLR,0.00,WeatherDisplay:10.36,2013-04-02 15:46:00,
2013-04-02 11:51:00,38.2,7.9,29.92,NNW,328,6.9,6.9,28,0.00,CLR,CLR,0.00,WeatherDisplay:10.36,2013-04-02 15:51:00,
2013-04-02 11:56:00,38.5,7.4,29.92,SSW,192,11.5,11.5,27,0.00,CLR,CLR,0.00,WeatherDisplay:10.36,2013-04-02 15:56:00,
2013-04-02 12:01:00,38.6,7.4,29.92,South,171,6.9,6.9,27,0.00,CLR,CLR,0.00,WeatherDisplay:10.36,2013-04-02 16:01:00,
2013-04-02 12:06:00,39.1,7.9,29.91,NW,314,10.4,10.4,27,0.00,CLR,CLR,0.00,WeatherDisplay:10.36,2013-04-02 16:06:00,
2013-04-02 12:12:00,39.2,8.8,29.91,West,260,13.0,13.0,28,0.00,CLR,CLR,0.00,WeatherDisplay:10.36,2013-04-02 16:12:00,
2013-04-02 12:18:00,39.2,8.8,29.92,WNW,282,6.9,6.9,28,0.00,CLR,CLR,0.00,WeatherDisplay:10.36,2013-04-02 16:18:00,
2013-04-02 12:23:00,39.3,8.0,29.92,West,281,6.9,6.9,27,0.00,CLR,CLR,0.00,WeatherDisplay:10.36,2013-04-02 16:23:00,
2013-04-02 12:28:00,39.6,9.1,29.92,WSW,246,4.6,4.6,28,0.00,CLR,CLR,0.00,WeatherDisplay:10.36,2013-04-02 16:28:00,
2013-04-02 12:33:00,40.2,10.4,29.92,SE,134,4.0,4.0,29,0.00,CLR,CLR,0.00,WeatherDisplay:10.36,2013-04-02 16:33:00,
2013-04-02 12:38:00,40.9,9.4,29.91,SSW,208,18.4,18.4,27,0.00,CLR,CLR,0.00,WeatherDisplay:10.36,2013-04-02 16:38:00,
2013-04-02 12:43:00,40.5,8.2,29.91,SW,219,14.0,14.0,26,0.00,CLR,CLR,0.00,WeatherDisplay:10.36,2013-04-02 16:43:00,
2013-04-02 12:48:00,40.3,9.7,29.91,WNW,293,9.2,9.2,28,0.00,CLR,CLR,0.00,WeatherDisplay:10.36,2013-04-02 16:48:00,
2013-04-02 12:53:00,40.1,9.6,29.91,SSW,204,6.9,6.9,28,0.00,CLR,CLR,0.00,WeatherDisplay:10.36,2013-04-02 16:53:00,
2013-04-02 12:59:00,40.1,8.7,29.91,WNW,288,5.0,5.0,27,0.00,CLR,CLR,0.00,WeatherDisplay:10.36,2013-04-02 16:59:00,
2013-04-02 13:04:00,39.9,8.6,29.91,West,274,5.8,5.8,27,0.00,CLR,CLR,0.00,WeatherDisplay:10.36,2013-04-02 17:04:00,
2013-04-02 13:09:00,40.1,8.7,29.91,WSW,243,7.0,7.0,27,0.00,CLR,CLR,0.00,WeatherDisplay:10.36,2013-04-02 17:09:00,
2013-04-02 13:14:00,40.1,9.6,29.91,SW,229,11.5,11.5,28,0.00,CLR,CLR,0.00,WeatherDisplay:10.36,2013-04-02 17:14:00,
2013-04-02 13:19:00,40.6,10.0,29.90,West,278,13.8,13.8,28,0.00,CLR,CLR,0.00,WeatherDisplay:10.36,2013-04-02 17:19:00,
2013-04-02 13:25:00,40.6,9.2,29.90,West,278,3.0,12.0,27,0.00,CLR,CLR,0.00,WeatherDisplay:10.36,2013-04-02 17:25:00,
2013-04-02 13:30:00,40.8,9.3,29.90,NNW,336,4.6,4.6,27,0.00,CLR,CLR,0.00,WeatherDisplay:10.36,2013-04-02 17:30:00,
2013-04-02 13:35:00,41.2,9.7,29.90,East,79,5.8,5.8,27,0.00,CLR,CLR,0.00,WeatherDisplay:10.36,2013-04-02 17:35:00,
2013-04-02 13:40:00,41.2,9.7,29.90,West,263,5.0,5.0,27,0.00,CLR,CLR,0.00,WeatherDisplay:10.36,2013-04-02 17:40:00,
2013-04-02 13:46:00,41.2,9.7,29.89,NW,306,3.5,3.5,27,0.00,CLR,CLR,0.00,WeatherDisplay:10.36,2013-04-02 17:46:00,
2013-04-02 13:51:00,41.2,9.7,29.90,WNW,302,4.6,4.6,27,0.00,CLR,CLR,0.00,WeatherDisplay:10.36,2013-04-02 17:51:00,
2013-04-02 13:56:00,40.8,9.3,29.89,West,264,5.8,5.8,27,0.00,CLR,CLR,0.00,WeatherDisplay:10.36,2013-04-02 17:56:00,
2013-04-02 14:01:00,40.2,9.6,29.90,WNW,285,9.2,9.2,28,0.00,CLR,CLR,0.00,WeatherDisplay:10.36,2013-04-02 18:01:00,
2013-04-02 14:07:00,40.8,10.2,29.89,SW,233,6.0,6.0,28,0.00,CLR,CLR,0.00,WeatherDisplay:10.36,2013-04-02 18:07:00,
2013-04-02 14:12:00,41.5,9.9,29.89,WSW,237,10.0,10.0,27,0.00,CLR,CLR,0.00,WeatherDisplay:10.36,2013-04-02 18:12:00,
2013-04-02 14:17:00,41.6,10.0,29.89,South,180,3.5,3.5,27,0.00,CLR,CLR,0.00,WeatherDisplay:10.36,2013-04-02 18:17:00,
2013-04-02 14:22:00,42.2,9.7,29.89,WSW,246,9.0,9.0,26,0.00,CLR,CLR,0.00,WeatherDisplay:10.36,2013-04-02 18:22:00,
2013-04-02 14:27:00,42.2,10.6,29.89,West,266,12.7,12.7,27,0.00,CLR,CLR,0.00,WeatherDisplay:10.36,2013-04-02 18:27:00,
2013-04-02 14:32:00,43.6,11.8,29.89,West,281,9.0,9.0,27,0.00,CLR,CLR,0.00,WeatherDisplay:10.36,2013-04-02 18:32:00,
2013-04-02 14:37:00,42.5,9.1,29.89,West,261,6.9,6.9,25,0.00,CLR,CLR,0.00,WeatherDisplay:10.36,2013-04-02 18:37:00,
2013-04-02 14:42:00,41.8,9.4,29.88,SSW,203,4.6,4.6,26,0.00,CLR,CLR,0.00,WeatherDisplay:10.36,2013-04-02 18:42:00,
2013-04-02 14:48:00,42.5,9.1,29.89,West,276,12.7,12.7,25,0.00,CLR,CLR,0.00,WeatherDisplay:10.36,2013-04-02 18:48:00,
2013-04-02 14:53:00,42.1,8.7,29.88,WSW,243,12.7,12.7,25,0.00,CLR,CLR,0.00,WeatherDisplay:10.36,2013-04-02 18:53:00,
2013-04-02 14:58:00,41.9,8.6,29.88,WNW,289,9.2,9.2,25,0.00,CLR,CLR,0.00,WeatherDisplay:10.36,2013-04-02 18:58:00,
2013-04-02 15:03:00,42.3,9.8,29.88,WNW,299,9.2,9.2,26,0.00,CLR,CLR,0.00,WeatherDisplay:10.36,2013-04-02 19:03:00,
2013-04-02 15:09:00,42.9,9.4,29.88,SW,223,11.5,11.5,25,0.00,CLR,CLR,0.00,WeatherDisplay:10.36,2013-04-02 19:09:00,
2013-04-02 15:14:00,42.8,10.2,29.88,WNW,283,10.0,10.0,26,0.00,CLR,CLR,0.00,WeatherDisplay:10.36,2013-04-02 19:14:00,
2013-04-02 15:19:00,42.9,8.5,29.88,South,188,14.0,14.0,24,0.00,CLR,CLR,0.00,WeatherDisplay:10.36,2013-04-02 19:19:00,
2013-04-02 15:24:00,42.8,8.4,29.88,West,279,5.0,5.0,24,0.00,CLR,CLR,0.00,WeatherDisplay:10.36,2013-04-02 19:24:00,
2013-04-02 15:29:00,42.3,8.9,29.88,WNW,285,5.8,5.8,25,0.00,CLR,CLR,0.00,WeatherDisplay:10.36,2013-04-02 19:29:00,
2013-04-02 15:35:00,42.3,9.8,29.88,NW,321,11.5,11.5,26,0.00,CLR,CLR,0.00,WeatherDisplay:10.36,2013-04-02 19:35:00,
2013-04-02 15:40:00,42.5,10.0,29.88,West,260,4.6,4.6,26,0.00,CLR,CLR,0.00,WeatherDisplay:10.36,2013-04-02 19:40:00,
2013-04-02 15:45:00,43.1,10.5,29.88,West,266,3.0,6.0,26,0.00,CLR,CLR,0.00,WeatherDisplay:10.36,2013-04-02 19:45:00,
2013-04-02 15:50:00,42.8,9.3,29.88,WNW,293,4.6,4.6,25,0.00,CLR,CLR,0.00,WeatherDisplay:10.36,2013-04-02 19:50:00,
2013-04-02 15:55:00,42.8,10.2,29.88,WSW,247,10.4,10.4,26,0.00,CLR,CLR,0.00,WeatherDisplay:10.36,2013-04-02 19:55:00,
2013-04-02 16:00:00,42.6,8.3,29.87,West,277,11.5,11.5,24,0.00,CLR,CLR,0.00,WeatherDisplay:10.36,2013-04-02 20:00:00,
2013-04-02 16:05:00,43.1,9.6,29.87,WNW,297,11.5,11.5,25,0.00,CLR,CLR,0.00,WeatherDisplay:10.36,2013-04-02 20:05:00,
2013-04-02 16:11:00,42.3,8.9,29.88,West,279,5.0,5.0,25,0.00,CLR,CLR,0.00,WeatherDisplay:10.36,2013-04-02 20:11:00,
2013-04-02 16:16:00,42.1,9.6,29.88,NW,326,6.0,6.0,26,0.00,CLR,CLR,0.00,WeatherDisplay:10.36,2013-04-02 20:16:00,
2013-04-02 16:21:00,42.1,8.7,29.88,West,271,2.3,2.3,25,0.00,CLR,CLR,0.00,WeatherDisplay:10.36,2013-04-02 20:21:00,
2013-04-02 16:26:00,41.9,8.6,29.87,SSW,209,6.9,6.9,25,0.00,CLR,CLR,0.00,WeatherDisplay:10.36,2013-04-02 20:26:00,
2013-04-02 16:31:00,42.1,8.7,29.87,West,276,3.0,4.0,25,0.00,CLR,CLR,0.00,WeatherDisplay:10.36,2013-04-02 20:31:00,
2013-04-02 16:36:00,42.8,8.4,29.88,WNW,288,10.4,10.4,24,0.00,CLR,CLR,0.00,WeatherDisplay:10.36,2013-04-02 20:36:00,
2013-04-02 16:42:00,43.2,8.8,29.88,SSW,206,18.0,18.0,24,0.00,CLR,CLR,0.00,WeatherDisplay:10.36,2013-04-02 20:42:00,
2013-04-02 16:47:00,43.3,9.8,29.88,West,271,2.3,2.3,25,0.00,CLR,CLR,0.00,WeatherDisplay:10.36,2013-04-02 20:47:00,
2013-04-02 16:52:00,44.2,9.6,29.88,West,274,2.0,2.0,24,0.00,CLR,CLR,0.00,WeatherDisplay:10.36,2013-04-02 20:52:00,
2013-04-02 16:57:00,43.9,9.4,29.88,West,259,3.0,3.0,24,0.00,CLR,CLR,0.00,WeatherDisplay:10.36,2013-04-02 20:57:00,
2013-04-02 17:03:00,43.3,7.9,29.88,SSE,160,11.5,11.5,23,0.00,CLR,CLR,0.00,WeatherDisplay:10.36,2013-04-02 21:03:00,
2013-04-02 17:08:00,42.2,7.9,29.88,SSE,155,4.0,4.0,24,0.00,CLR,CLR,0.00,WeatherDisplay:10.36,2013-04-02 21:08:00,
2013-04-02 17:13:00,42.3,8.9,29.88,WNW,297,5.0,5.0,25,0.00,CLR,CLR,0.00,WeatherDisplay:10.36,2013-04-02 21:13:00,
2013-04-02 17:18:00,42.9,9.4,29.88,SW,227,3.5,3.5,25,0.00,CLR,CLR,0.00,WeatherDisplay:10.36,2013-04-02 21:18:00,
2013-04-02 17:23:00,43.5,9.0,29.89,WNW,282,4.0,4.0,24,0.00,CLR,CLR,0.00,WeatherDisplay:10.36,2013-04-02 21:23:00,
2013-04-02 17:29:00,43.6,8.2,29.89,West,271,9.2,9.2,23,0.00,CLR,CLR,0.00,WeatherDisplay:10.36,2013-04-02 21:29:00,
2013-04-02 17:34:00,42.9,8.5,29.89,West,269,4.6,4.6,24,0.00,CLR,CLR,0.00,WeatherDisplay:10.36,2013-04-02 21:34:00,
2013-04-02 17:39:00,42.5,8.2,29.89,WNW,288,4.6,4.6,24,0.00,CLR,CLR,0.00,WeatherDisplay:10.36,2013-04-02 21:39:00,
2013-04-02 17:44:00,42.5,8.2,29.89,NW,309,9.2,9.2,24,0.00,CLR,CLR,0.00,WeatherDisplay:10.36,2013-04-02 21:44:00,
2013-04-02 17:49:00,42.8,7.5,29.90,WSW,244,10.4,10.4,23,0.00,CLR,CLR,0.00,WeatherDisplay:10.36,2013-04-02 21:49:00,
2013-04-02 17:54:00,42.8,7.5,29.90,NW,316,5.8,5.8,23,0.00,CLR,CLR,0.00,WeatherDisplay:10.36,2013-04-02 21:54:00,
2013-04-02 17:59:00,42.3,8.0,29.90,WSW,245,3.5,3.5,24,0.00,CLR,CLR,0.00,WeatherDisplay:10.36,2013-04-02 21:59:00,
2013-04-02 18:05:00,42.2,8.8,29.90,SW,234,6.0,12.0,25,0.00,CLR,CLR,0.00,WeatherDisplay:10.36,2013-04-02 22:05:00,
2013-04-02 18:10:00,41.8,8.5,29.90,SW,222,10.0,15.0,25,0.00,CLR,CLR,0.00,WeatherDisplay:10.36,2013-04-02 22:10:00,
2013-04-02 18:15:00,41.2,8.0,29.91,SW,226,9.2,9.2,25,0.00,CLR,CLR,0.00,WeatherDisplay:10.36,2013-04-02 22:15:00,
2013-04-02 18:20:00,41.1,7.9,29.91,WSW,238,3.5,3.5,25,0.00,CLR,CLR,0.00,WeatherDisplay:10.36,2013-04-02 22:20:00,
2013-04-02 18:25:00,41.3,8.1,29.91,West,280,3.5,3.5,25,0.00,CLR,CLR,0.00,WeatherDisplay:10.36,2013-04-02 22:25:00,
2013-04-02 18:30:00,41.5,8.2,29.91,SW,233,3.5,3.5,25,0.00,CLR,CLR,0.00,WeatherDisplay:10.36,2013-04-02 22:30:00,
2013-04-02 18:36:00,41.6,8.3,29.91,West,271,5.0,5.0,25,0.00,CLR,CLR,0.00,WeatherDisplay:10.36,2013-04-02 22:36:00,
2013-04-02 18:41:00,41.3,8.9,29.91,SW,233,4.6,4.6,26,0.00,CLR,CLR,0.00,WeatherDisplay:10.36,2013-04-02 22:41:00,
2013-04-02 18:46:00,41.2,8.8,29.91,SW,232,3.5,3.5,26,0.00,CLR,CLR,0.00,WeatherDisplay:10.36,2013-04-02 22:46:00,
2013-04-02 18:51:00,40.9,8.6,29.91,WSW,248,3.5,3.5,26,0.00,CLR,CLR,0.00,WeatherDisplay:10.36,2013-04-02 22:51:00,
2013-04-02 18:56:00,40.8,9.3,29.92,WNW,284,1.2,1.2,27,0.00,CLR,CLR,0.00,WeatherDisplay:10.36,2013-04-02 22:56:00,
2013-04-02 19:01:00,40.6,7.5,29.91,WSW,249,11.5,11.5,25,0.00,CLR,CLR,0.00,WeatherDisplay:10.36,2013-04-02 23:01:00,
2013-04-02 19:07:00,40.5,7.4,29.92,SW,236,4.6,4.6,25,0.00,CLR,CLR,0.00,WeatherDisplay:10.36,2013-04-02 23:07:00,
2013-04-02 19:12:00,40.3,7.2,29.92,WSW,257,2.3,2.3,25,0.00,CLR,CLR,0.00,WeatherDisplay:10.36,2013-04-02 23:12:00,
2013-04-02 19:17:00,40.2,8.0,29.92,WNW,295,4.6,4.6,26,0.00,CLR,CLR,0.00,WeatherDisplay:10.36,2013-04-02 23:17:00,
2013-04-02 19:22:00,40.1,7.9,29.92,West,278,3.5,3.5,26,0.00,CLR,CLR,0.00,WeatherDisplay:10.36,2013-04-02 23:22:00,
2013-04-02 19:27:00,40.1,7.9,29.92,SW,230,4.0,4.0,26,0.00,CLR,CLR,0.00,WeatherDisplay:10.36,2013-04-02 23:27:00,
2013-04-02 19:32:00,39.9,8.6,29.92,WNW,284,0.0,0.7,27,0.00,CLR,CLR,0.00,WeatherDisplay:10.36,2013-04-02 23:32:00,
2013-04-02 19:38:00,39.6,7.5,29.92,WNW,285,4.6,4.6,26,0.00,CLR,CLR,0.00,WeatherDisplay:10.36,2013-04-02 23:38:00,
2013-04-02 19:43:00,39.6,8.3,29.92,West,272,1.2,1.2,27,0.00,CLR,CLR,0.00,WeatherDisplay:10.36,2013-04-02 23:43:00,
2013-04-02 19:48:00,39.5,8.2,29.92,SSW,207,2.3,2.3,27,0.00,CLR,CLR,0.00,WeatherDisplay:10.36,2013-04-02 23:48:00,
2013-04-02 19:53:00,39.5,8.2,29.93,West,263,4.6,4.6,27,0.00,CLR,CLR,0.00,WeatherDisplay:10.36,2013-04-02 23:53:00,
2013-04-02 19:58:00,39.3,8.9,29.93,NW,316,3.5,0.0,28,0.00,CLR,CLR,0.00,WeatherDisplay:10.36,2013-04-02 23:58:00,
2013-04-02 20:03:00,39.3,8.9,29.93,West,276,2.3,2.3,28,0.00,CLR,CLR,0.00,WeatherDisplay:10.36,2013-04-03 00:03:00,
2013-04-02 20:08:00,39.2,8.8,29.93,West,276,0.0,0.0,28,0.00,CLR,CLR,0.00,WeatherDisplay:10.36,2013-04-03 00:08:00,
2013-04-02 20:14:00,38.9,8.5,29.94,West,276,2.3,2.3,28,0.00,CLR,CLR,0.00,WeatherDisplay:10.36,2013-04-03 00:14:00,
2013-04-02 20:19:00,38.9,8.5,29.94,West,276,0.0,0.0,28,0.00,CLR,CLR,0.00,WeatherDisplay:10.36,2013-04-03 00:19:00,
2013-04-02 20:24:00,38.8,8.4,29.94,West,276,2.0,2.0,28,0.00,CLR,CLR,0.00,WeatherDisplay:10.36,2013-04-03 00:24:00,
2013-04-02 20:29:00,38.6,9.0,29.94,SW,231,0.0,0.0,29,0.00,CLR,CLR,0.00,WeatherDisplay:10.36,2013-04-03 00:29:00,
2013-04-02 20:34:00,38.5,8.9,29.95,SW,231,0.0,0.0,29,0.00,CLR,CLR,0.00,WeatherDisplay:10.36,2013-04-03 00:34:00,
2013-04-02 20:40:00,38.3,9.5,29.95,SW,231,0.0,0.0,30,0.00,CLR,CLR,0.00,WeatherDisplay:10.36,2013-04-03 00:40:00,
2013-04-02 20:45:00,38.0,9.3,29.95,WSW,246,3.5,3.5,30,0.00,CLR,CLR,0.00,WeatherDisplay:10.36,2013-04-03 00:45:00,
2013-04-02 20:51:00,38.0,9.3,29.96,WSW,246,1.2,1.2,30,0.00,CLR,CLR,0.00,WeatherDisplay:10.36,2013-04-03 00:51:00,
2013-04-02 20:57:00,38.0,8.5,29.96,WSW,246,0.0,0.0,29,0.00,CLR,CLR,0.00,WeatherDisplay:10.36,2013-04-03 00:57:00,
2013-04-02 21:02:00,38.0,8.5,29.96,WSW,246,1.2,1.2,29,0.00,CLR,CLR,0.00,WeatherDisplay:10.36,2013-04-03 01:02:00,
2013-04-02 21:07:00,37.9,9.2,29.96,South,191,2.0,2.0,30,0.00,CLR,CLR,0.00,WeatherDisplay:10.36,2013-04-03 01:07:00,
2013-04-02 21:12:00,37.9,9.2,29.96,West,281,1.2,1.2,30,0.00,CLR,CLR,0.00,WeatherDisplay:10.36,2013-04-03 01:12:00,
2013-04-02 21:17:00,37.8,9.1,29.97,WSW,254,1.2,1.2,30,0.00,CLR,CLR,0.00,WeatherDisplay:10.36,2013-04-03 01:17:00,
2013-04-02 21:23:00,37.8,9.8,29.97,WSW,254,0.0,0.0,31,0.00,CLR,CLR,0.00,WeatherDisplay:10.36,2013-04-03 01:23:00,
2013-04-02 21:28:00,37.6,10.4,29.97,WSW,254,0.0,0.0,32,0.00,CLR,CLR,0.00,WeatherDisplay:10.36,2013-04-03 01:28:00,
2013-04-02 21:33:00,37.5,10.3,29.97,WSW,254,1.2,1.2,32,0.00,CLR,CLR,0.00,WeatherDisplay:10.36,2013-04-03 01:33:00,
2013-04-02 21:38:00,37.3,10.1,29.97,WSW,254,0.0,0.0,32,0.00,CLR,CLR,0.00,WeatherDisplay:10.36,2013-04-03 01:38:00,
2013-04-02 21:43:00,37.0,9.8,29.97,WSW,254,0.0,0.0,32,0.00,CLR,CLR,0.00,WeatherDisplay:10.36,2013-04-03 01:43:00,
2013-04-02 21:49:00,36.9,11.1,29.97,WSW,254,0.0,0.0,34,0.00,CLR,CLR,0.00,WeatherDisplay:10.36,2013-04-03 01:49:00,
2013-04-02 21:54:00,36.6,10.2,29.97,WSW,254,0.0,0.0,33,0.00,CLR,CLR,0.00,WeatherDisplay:10.36,2013-04-03 01:54:00,
2013-04-02 21:59:00,36.5,10.1,29.97,WSW,254,0.0,0.0,33,0.00,CLR,CLR,0.00,WeatherDisplay:10.36,2013-04-03 01:59:00,
2013-04-02 22:04:00,36.2,10.5,29.98,WSW,254,0.0,0.0,34,0.00,CLR,CLR,0.00,WeatherDisplay:10.36,2013-04-03 02:04:00,
2013-04-02 22:09:00,36.0,11.0,29.98,WSW,254,0.0,0.0,35,0.00,CLR,CLR,0.00,WeatherDisplay:10.36,2013-04-03 02:09:00,
2013-04-02 22:15:00,35.8,10.1,29.98,WSW,254,0.0,0.0,34,0.00,CLR,CLR,0.00,WeatherDisplay:10.36,2013-04-03 02:15:00,
2013-04-02 22:20:00,35.6,10.6,29.98,WSW,254,0.0,0.0,35,0.00,CLR,CLR,0.00,WeatherDisplay:10.36,2013-04-03 02:20:00,
2013-04-02 22:25:00,35.5,10.5,29.98,WSW,254,0.0,0.0,35,0.00,CLR,CLR,0.00,WeatherDisplay:10.36,2013-04-03 02:25:00,
2013-04-02 22:30:00,35.3,11.0,29.99,WSW,254,0.0,0.0,36,0.00,CLR,CLR,0.00,WeatherDisplay:10.36,2013-04-03 02:30:00,
2013-04-02 22:35:00,35.2,10.2,29.99,WSW,254,0.0,0.0,35,0.00,CLR,CLR,0.00,WeatherDisplay:10.36,2013-04-03 02:35:00,
2013-04-02 22:40:00,35.2,10.9,29.99,WSW,254,0.0,0.0,36,0.00,CLR,CLR,0.00,WeatherDisplay:10.36,2013-04-03 02:40:00,
2013-04-02 22:45:00,35.3,9.7,29.99,WNW,282,0.0,0.1,34,0.00,CLR,CLR,0.00,WeatherDisplay:10.36,2013-04-03 02:45:00,
2013-04-02 22:50:00,35.6,9.9,29.99,WNW,282,0.0,0.0,34,0.00,CLR,CLR,0.00,WeatherDisplay:10.36,2013-04-03 02:50:00,
2013-04-02 22:55:00,35.8,10.1,29.99,West,274,3.0,3.0,34,0.00,CLR,CLR,0.00,WeatherDisplay:10.36,2013-04-03 02:55:00,
2013-04-02 23:01:00,35.8,9.5,29.99,NW,326,3.5,3.5,33,0.00,CLR,CLR,0.00,WeatherDisplay:10.36,2013-04-03 03:01:00,
2013-04-02 23:06:00,35.8,9.5,29.99,WNW,286,1.0,0.0,33,0.00,CLR,CLR,0.00,WeatherDisplay:10.36,2013-04-03 03:06:00,
2013-04-02 23:12:00,35.8,8.8,30.00,WNW,302,3.5,3.5,32,0.00,CLR,CLR,0.00,WeatherDisplay:10.36,2013-04-03 03:12:00,
2013-04-02 23:17:00,35.8,9.5,30.00,WNW,302,2.3,2.3,33,0.00,CLR,CLR,0.00,WeatherDisplay:10.36,2013-04-03 03:17:00,
2013-04-02 23:22:00,35.8,8.8,30.00,WNW,297,1.2,0.0,32,0.00,CLR,CLR,0.00,WeatherDisplay:10.36,2013-04-03 03:22:00,
2013-04-02 23:27:00,35.6,8.6,30.00,NW,323,2.0,2.0,32,0.00,CLR,CLR,0.00,WeatherDisplay:10.36,2013-04-03 03:27:00,
2013-04-02 23:32:00,35.5,8.5,30.00,NW,321,2.3,2.3,32,0.00,CLR,CLR,0.00,WeatherDisplay:10.36,2013-04-03 03:32:00,
2013-04-02 23:38:00,35.3,9.0,30.01,West,272,2.0,2.0,33,0.00,CLR,CLR,0.00,WeatherDisplay:10.36,2013-04-03 03:38:00,
2013-04-02 23:43:00,35.2,9.6,30.01,WSW,245,1.2,1.2,34,0.00,CLR,CLR,0.00,WeatherDisplay:10.36,2013-04-03 03:43:00,
2013-04-02 23:48:00,35.0,8.1,30.01,SW,229,3.5,3.5,32,0.00,CLR,CLR,0.00,WeatherDisplay:10.36,2013-04-03 03:48:00,
2013-04-02 23:53:00,35.2,7.5,30.01,West,271,3.5,3.5,31,0.00,CLR,CLR,0.00,WeatherDisplay:10.36,2013-04-03 03:53:00,
2013-04-02 23:58:00,35.2,7.5,30.01,West,260,3.5,3.5,31,0.00,CLR,CLR,0.00,WeatherDisplay:10.36,2013-04-03 03:58:00,